createdAt,value
2019-04-07T00:00:55.373Z,3.85
2019-04-07T00:03:27.817Z,3.85
2019-04-07T00:05:59.846Z,3.95
2019-04-07T00:08:31.745Z,3.70
2019-04-07T00:11:04.651Z,3.00
2019-04-07T00:13:36.692Z,4.12
2019-04-07T00:16:09.783Z,3.27
2019-04-07T00:18:41.751Z,3.25
2019-04-07T00:21:13.725Z,3.80
2019-04-07T00:23:45.659Z,3.33
2019-04-07T00:26:17.593Z,3.33
2019-04-07T00:28:49.847Z,4.03
2019-04-07T00:31:21.805Z,3.70
2019-04-07T00:33:53.719Z,4.05
2019-04-07T00:36:25.851Z,4.37
2019-04-07T00:38:57.779Z,4.03
2019-04-07T00:41:29.976Z,4.47
2019-04-07T00:44:02.912Z,5.10
2019-04-07T00:46:35.538Z,4.78
2019-04-07T00:49:08.317Z,4.20
2019-04-07T00:51:41.013Z,4.10
2019-04-07T00:54:13.223Z,4.75
2019-04-07T00:56:45.508Z,4.80
2019-04-07T00:59:18.229Z,4.83
2019-04-07T01:01:50.416Z,5.55
2019-04-07T01:04:22.709Z,5.17
2019-04-07T01:06:54.859Z,4.83
2019-04-07T01:09:26.890Z,5.87
2019-04-07T01:11:58.824Z,5.17
2019-04-07T01:14:31.325Z,5.05
2019-04-07T01:17:04.296Z,4.28
2019-04-07T01:19:36.636Z,4.95
2019-04-07T01:22:09.040Z,4.80
2019-04-07T01:24:41.054Z,4.30
2019-04-07T01:27:13.163Z,4.08
2019-04-07T01:29:46.246Z,4.03
2019-04-07T01:32:19.206Z,4.10
2019-04-07T01:34:51.525Z,3.60
2019-04-07T01:37:24.092Z,4.00
2019-04-07T01:39:56.206Z,4.72
2019-04-07T01:42:33.656Z,4.22
2019-04-07T01:45:31.921Z,4.90
2019-04-07T01:48:25.736Z,4.15
2019-04-07T01:51:16.868Z,4.80
2019-04-07T01:54:13.944Z,4.70
2019-04-07T01:57:04.503Z,5.60
2019-04-07T01:59:58.224Z,5.35
2019-04-07T02:02:49.433Z,4.53
2019-04-07T02:05:39.227Z,4.65
2019-04-07T02:08:22.105Z,3.90
2019-04-07T02:11:15.818Z,4.77
2019-04-07T02:14:10.172Z,4.97
2019-04-07T02:16:49.994Z,4.85
2019-04-07T02:19:47.155Z,5.10
2019-04-07T02:22:40.910Z,5.67
2019-04-07T02:25:31.868Z,4.75
2019-04-07T02:28:28.514Z,4.75
2019-04-07T02:31:27.469Z,5.12
2019-04-07T02:34:25.935Z,4.37
2019-04-07T02:37:22.890Z,4.50
2019-04-07T02:40:05.137Z,4.53
2019-04-07T02:42:48.419Z,5.10
2019-04-07T02:45:30.378Z,5.20
2019-04-07T02:48:15.356Z,4.87
2019-04-07T02:51:03.149Z,5.50
2019-04-07T02:53:45.472Z,5.50
2019-04-07T02:56:33.800Z,4.58
2019-04-07T02:59:10.756Z,4.90
2019-04-07T03:02:08.163Z,3.80
2019-04-07T03:05:04.797Z,3.95
2019-04-07T03:07:58.296Z,3.80
2019-04-07T03:10:47.531Z,3.70
2019-04-07T03:13:41.925Z,4.03
2019-04-07T03:16:25.316Z,4.12
2019-04-07T03:19:11.306Z,3.60
2019-04-07T03:22:11.216Z,4.30
2019-04-07T03:25:09.935Z,3.83
2019-04-07T03:27:51.366Z,3.95
2019-04-07T03:30:38.569Z,4.50
2019-04-07T03:33:22.748Z,4.00
2019-04-07T03:36:06.829Z,4.15
2019-04-07T03:38:59.439Z,4.53
2019-04-07T03:41:59.026Z,4.78
2019-04-07T03:44:53.278Z,4.78
2019-04-07T03:47:42.429Z,4.87
2019-04-07T03:50:51.557Z,5.53
2019-04-07T03:53:42.583Z,5.25
2019-04-07T03:56:37.197Z,5.20
2019-04-07T03:59:26.923Z,5.10
2019-04-07T04:02:12.308Z,5.07
2019-04-07T04:04:55.644Z,4.67
2019-04-07T04:07:49.514Z,5.45
2019-04-07T04:10:40.802Z,4.85
2019-04-07T04:13:37.935Z,4.75
2019-04-07T04:16:19.983Z,5.03
2019-04-07T04:18:52.624Z,4.67
2019-04-07T04:21:24.517Z,5.17
2019-04-07T04:23:57.621Z,4.92
2019-04-07T04:26:29.779Z,5.20
2019-04-07T04:29:03.681Z,5.60
2019-04-07T04:31:36.771Z,5.15
2019-04-07T04:34:09.832Z,4.65
2019-04-07T04:36:41.929Z,5.12
2019-04-07T04:39:18.605Z,4.80
2019-04-07T04:41:48.892Z,4.87
2019-04-07T04:44:22.441Z,5.28
2019-04-07T04:46:54.840Z,5.37
2019-04-07T04:49:27.106Z,5.85
2019-04-07T04:51:59.065Z,5.55
2019-04-07T04:54:31.900Z,5.92
2019-04-07T04:57:06.452Z,5.87
2019-04-07T04:59:37.543Z,5.75
2019-04-07T05:02:10.600Z,5.28
2019-04-07T05:04:44.704Z,5.08
2019-04-07T05:07:17.054Z,5.65
2019-04-07T05:09:52.874Z,5.42
2019-04-07T05:12:23.472Z,6.20
2019-04-07T05:14:55.966Z,6.30
2019-04-07T05:17:28.821Z,6.55
2019-04-07T05:20:01.169Z,6.20
2019-04-07T05:22:33.369Z,6.97
2019-04-07T05:25:06.887Z,6.12
2019-04-07T05:27:39.234Z,5.90
2019-04-07T05:30:12.319Z,6.20
2019-04-07T05:32:44.851Z,6.40
2019-04-07T05:35:17.486Z,6.58
2019-04-07T05:37:59.964Z,6.60
2019-04-07T05:40:23.191Z,7.40
2019-04-07T05:42:55.516Z,6.85
2019-04-07T05:45:27.977Z,7.45
2019-04-07T05:48:00.420Z,7.12
2019-04-07T05:50:32.661Z,7.25
2019-04-07T05:53:06.836Z,7.37
2019-04-07T05:55:39.359Z,7.60
2019-04-07T05:58:11.980Z,7.00
2019-04-07T06:00:47.021Z,7.67
2019-04-07T06:03:20.355Z,7.15
2019-04-07T06:05:52.869Z,8.00
2019-04-07T06:08:34.039Z,7.50
2019-04-07T06:11:01.544Z,7.95
2019-04-07T06:13:35.600Z,7.22
2019-04-07T06:16:08.024Z,7.37
2019-04-07T06:18:40.031Z,8.25
2019-04-07T06:21:14.148Z,8.78
2019-04-07T06:23:45.581Z,8.20
2019-04-07T06:26:17.719Z,8.90
2019-04-07T06:28:54.619Z,9.15
2019-04-07T06:31:26.319Z,8.58
2019-04-07T06:33:59.487Z,8.33
2019-04-07T06:36:31.995Z,8.60
2019-04-07T06:39:07.192Z,9.00
2019-04-07T06:41:39.339Z,8.78
2019-04-07T06:44:13.812Z,8.60
2019-04-07T06:47:10.003Z,8.93
2019-04-07T06:50:07.413Z,8.25
2019-04-07T06:52:56.919Z,8.45
2019-04-07T06:55:37.014Z,7.42
2019-04-07T06:58:24.278Z,7.87
2019-04-07T07:01:15.385Z,7.75
2019-04-07T07:04:09.264Z,7.35
2019-04-07T07:07:00.524Z,7.78
2019-04-07T07:10:00.974Z,6.67
2019-04-07T07:13:09.334Z,7.45
2019-04-07T07:15:57.309Z,6.55
2019-04-07T07:18:40.911Z,7.53
2019-04-07T07:21:36.336Z,7.37
2019-04-07T07:24:06.180Z,7.55
2019-04-07T07:26:38.573Z,7.10
2019-04-07T07:29:13.243Z,6.92
2019-04-07T07:31:44.867Z,7.65
2019-04-07T07:34:18.727Z,6.83
2019-04-07T07:36:53.435Z,7.58
2019-04-07T07:39:25.123Z,7.35
2019-04-07T07:41:57.078Z,6.80
2019-04-07T07:44:28.999Z,7.00
2019-04-07T07:47:01.555Z,6.80
2019-04-07T07:49:36.112Z,7.55
2019-04-07T07:52:07.512Z,6.40
2019-04-07T07:54:39.477Z,7.62
2019-04-07T07:57:11.421Z,8.25
2019-04-07T07:59:44.044Z,9.48
2019-04-07T08:02:19.440Z,9.03
2019-04-07T08:04:51.077Z,8.53
2019-04-07T08:07:23.643Z,7.90
2019-04-07T08:09:56.813Z,7.35
2019-04-07T08:12:34.435Z,8.13
2019-04-07T08:15:04.946Z,8.25
2019-04-07T08:17:37.665Z,7.75
2019-04-07T08:20:11.367Z,7.33
2019-04-07T08:22:44.983Z,6.42
2019-04-07T08:25:20.394Z,6.83
2019-04-07T08:27:50.907Z,6.50
2019-04-07T08:30:22.963Z,6.10
2019-04-07T08:32:57.644Z,6.67
2019-04-07T08:35:28.882Z,7.37
2019-04-07T08:38:01.476Z,7.35
2019-04-07T08:40:36.532Z,7.40
2019-04-07T08:43:08.261Z,7.92
2019-04-07T08:45:41.434Z,7.42
2019-04-07T08:48:13.411Z,5.87
2019-04-07T08:50:45.372Z,7.42
2019-04-07T08:53:17.346Z,6.15
2019-04-07T08:55:52.029Z,5.47
2019-04-07T08:58:28.431Z,6.22
2019-04-07T09:00:58.538Z,6.70
2019-04-07T09:03:31.408Z,6.95
2019-04-07T09:06:04.576Z,6.85
2019-04-07T09:08:38.002Z,6.37
2019-04-07T09:11:13.511Z,5.90
2019-04-07T09:13:51.547Z,6.35
2019-04-07T09:16:57.839Z,6.37
2019-04-07T09:20:00.762Z,5.05
2019-04-07T09:22:38.920Z,4.15
2019-04-07T09:25:31.965Z,3.50
2019-04-07T09:28:25.437Z,4.58
2019-04-07T09:31:25.607Z,4.35
2019-04-07T09:34:18.901Z,5.45
2019-04-07T09:36:57.515Z,6.97
2019-04-07T09:39:58.447Z,7.12
2019-04-07T09:42:47.226Z,4.08
2019-04-07T09:45:39.420Z,3.02
2019-04-07T09:48:50.038Z,4.12
2019-04-07T09:51:41.351Z,3.80
2019-04-07T09:54:30.658Z,3.25
2019-04-07T09:57:35.484Z,2.83
2019-04-07T10:00:17.077Z,4.42
2019-04-07T10:03:26.313Z,4.78
2019-04-07T10:06:09.859Z,3.92
2019-04-07T10:09:04.078Z,5.60
2019-04-07T10:12:04.866Z,7.15
2019-04-07T10:14:55.269Z,3.75
2019-04-07T10:17:45.176Z,19.82
2019-04-07T10:20:35.223Z,6.80
2019-04-07T10:23:23.166Z,3.52
2019-04-07T10:26:23.379Z,19.57
2019-04-07T10:29:00.613Z,15.38
2019-04-07T10:31:55.343Z,8.45
2019-04-07T10:34:55.475Z,14.07
2019-04-07T10:37:45.130Z,9.13
2019-04-07T10:40:40.043Z,18.45
2019-04-07T10:43:20.031Z,10.88
2019-04-07T10:46:13.639Z,4.83
2019-04-07T10:48:53.662Z,5.10
2019-04-07T10:51:51.277Z,4.65
2019-04-07T10:54:41.528Z,4.30
2019-04-07T10:57:24.869Z,3.00
2019-04-07T11:00:27.823Z,3.00
2019-04-07T11:03:23.114Z,4.10
2019-04-07T11:06:14.954Z,3.75
2019-04-07T11:09:17.876Z,4.20
2019-04-07T11:12:12.441Z,3.67
2019-04-07T11:15:03.210Z,3.67
2019-04-07T11:18:04.167Z,3.08
2019-04-07T11:20:48.862Z,4.17
2019-04-07T11:23:43.354Z,3.55
2019-04-07T11:26:45.926Z,2.52
2019-04-07T11:29:45.596Z,2.77
2019-04-07T11:32:30.759Z,2.92
2019-04-07T11:35:13.765Z,2.80
2019-04-07T11:38:14.687Z,6.17
2019-04-07T11:41:27.221Z,4.15
2019-04-07T11:44:10.486Z,2.98
2019-04-07T11:47:03.771Z,3.37
2019-04-07T11:49:48.522Z,3.15
2019-04-07T11:52:26.656Z,3.92
2019-04-07T11:55:10.156Z,2.87
2019-04-07T11:58:06.672Z,4.85
2019-04-07T12:00:51.402Z,2.83
2019-04-07T12:03:40.574Z,2.83
2019-04-07T12:06:49.911Z,2.83
2019-04-07T12:09:28.371Z,3.52
2019-04-07T12:12:18.237Z,2.55
2019-04-07T12:15:09.554Z,2.62
2019-04-07T12:18:05.209Z,2.70
2019-04-07T12:20:48.313Z,2.85
2019-04-07T12:23:33.658Z,2.25
2019-04-07T12:26:24.782Z,3.20
2019-04-07T12:29:22.251Z,2.30
2019-04-07T12:32:25.985Z,2.37
2019-04-07T12:35:23.565Z,1.90
2019-04-07T12:38:13.567Z,2.50
2019-04-07T12:41:15.029Z,2.33
2019-04-07T12:44:02.811Z,2.05
2019-04-07T12:46:46.424Z,1.82
2019-04-07T12:49:44.473Z,1.80
2019-04-07T12:52:33.485Z,2.25
2019-04-07T12:55:26.900Z,2.05
2019-04-07T12:58:11.658Z,1.80
2019-04-07T13:01:21.161Z,2.00
2019-04-07T13:04:21.038Z,1.62
2019-04-07T13:07:15.103Z,1.85
2019-04-07T13:10:04.587Z,2.20
2019-04-07T13:12:57.958Z,2.08
2019-04-07T13:15:52.045Z,2.25
2019-04-07T13:18:35.603Z,1.57
2019-04-07T13:21:46.680Z,2.08
2019-04-07T13:24:35.646Z,2.50
2019-04-07T13:27:16.843Z,1.98
2019-04-07T13:29:54.241Z,2.37
2019-04-07T13:32:41.630Z,1.87
2019-04-07T13:35:40.629Z,1.92
2019-04-07T13:38:38.296Z,1.85
2019-04-07T13:41:47.579Z,2.25
2019-04-07T13:44:48.390Z,1.82
2019-04-07T13:47:27.027Z,1.82
2019-04-07T13:50:19.798Z,2.00
2019-04-07T13:53:08.972Z,2.00
2019-04-07T13:55:49.767Z,1.60
2019-04-07T13:58:35.070Z,1.65
2019-04-07T14:01:40.769Z,1.98
2019-04-07T14:04:32.948Z,1.80
2019-04-07T14:07:42.736Z,1.90
2019-04-07T14:10:37.246Z,1.37
2019-04-07T14:13:28.266Z,2.90
2019-04-07T14:16:37.711Z,1.60
2019-04-07T14:19:28.870Z,1.92
2019-04-07T14:22:29.715Z,1.98
2019-04-07T14:25:24.585Z,3.17
2019-04-07T14:28:12.991Z,6.28
2019-04-07T14:31:07.611Z,6.70
2019-04-07T14:33:58.927Z,5.20
2019-04-07T14:36:58.960Z,3.67
2019-04-07T14:39:39.344Z,2.50
2019-04-07T14:42:29.438Z,2.30
2019-04-07T14:45:24.911Z,2.42
2019-04-07T14:48:09.836Z,2.60
2019-04-07T14:51:07.234Z,2.92
2019-04-07T14:54:16.413Z,2.47
2019-04-07T14:57:09.058Z,2.75
2019-04-07T14:59:55.397Z,3.00
2019-04-07T15:02:29.101Z,2.52
2019-04-07T15:05:13.723Z,2.75
2019-04-07T15:08:01.285Z,2.50
2019-04-07T15:10:37.800Z,2.80
2019-04-07T15:13:13.073Z,2.62
2019-04-07T15:15:45.050Z,2.27
2019-04-07T15:18:21.451Z,3.00
2019-04-07T15:20:57.312Z,2.95
2019-04-07T15:23:32.283Z,2.30
2019-04-07T15:26:03.819Z,2.50
2019-04-07T15:28:35.803Z,2.00
2019-04-07T15:31:08.576Z,1.85
2019-04-07T15:33:40.987Z,2.00
2019-04-07T15:36:13.026Z,1.80
2019-04-07T15:38:45.558Z,2.15
2019-04-07T15:41:19.082Z,2.17
2019-04-07T15:43:52.253Z,2.27
2019-04-07T15:46:25.697Z,2.22
2019-04-07T15:48:58.312Z,2.50
2019-04-07T15:51:34.127Z,2.15
2019-04-07T15:54:04.400Z,2.25
2019-04-07T15:56:36.834Z,2.30
2019-04-07T15:59:09.904Z,2.10
2019-04-07T16:01:43.084Z,3.58
2019-04-07T16:04:15.988Z,3.00
2019-04-07T16:06:50.308Z,3.12
2019-04-07T16:09:34.624Z,3.12
2019-04-07T16:11:58.861Z,3.87
2019-04-07T16:14:30.974Z,3.67
2019-04-07T16:17:07.284Z,4.75
2019-04-07T16:19:43.081Z,4.05
2019-04-07T16:22:14.563Z,4.00
2019-04-07T16:24:47.544Z,4.55
2019-04-07T16:27:19.744Z,3.98
2019-04-07T16:29:54.760Z,4.83
2019-04-07T16:32:29.111Z,4.22
2019-04-07T16:35:01.721Z,4.50
2019-04-07T16:37:34.804Z,4.72
2019-04-07T16:40:11.454Z,4.83
2019-04-07T16:42:54.546Z,4.33
2019-04-07T16:45:17.961Z,3.77
2019-04-07T16:47:51.548Z,3.40
2019-04-07T16:50:23.672Z,3.50
2019-04-07T16:52:55.893Z,4.30
2019-04-07T16:55:37.359Z,3.87
2019-04-07T16:58:10.310Z,3.95
2019-04-07T17:00:42.935Z,4.30
2019-04-07T17:03:15.450Z,4.95
2019-04-07T17:05:48.588Z,4.90
2019-04-07T17:08:22.474Z,5.00
2019-04-07T17:10:55.852Z,3.70
2019-04-07T17:13:38.149Z,4.35
2019-04-07T17:16:05.815Z,4.30
2019-04-07T17:18:41.186Z,3.83
2019-04-07T17:21:16.077Z,4.37
2019-04-07T17:23:48.564Z,4.53
2019-04-07T17:26:23.360Z,4.72
2019-04-07T17:28:56.982Z,4.15
2019-04-07T17:31:31.162Z,4.95
2019-04-07T17:34:07.374Z,5.47
2019-04-07T17:36:39.252Z,4.75
2019-04-07T17:39:28.651Z,4.42
2019-04-07T17:42:01.517Z,4.30
2019-04-07T17:44:59.330Z,5.17
2019-04-07T17:47:39.212Z,3.90
2019-04-07T17:50:33.755Z,4.35
2019-04-07T17:53:26.502Z,4.65
2019-04-07T17:56:20.918Z,3.85
2019-04-07T17:59:28.188Z,4.37
2019-04-07T18:02:34.918Z,5.25
2019-04-07T18:05:24.254Z,5.75
2019-04-07T18:08:09.202Z,5.47
2019-04-07T18:11:07.599Z,5.08
2019-04-07T18:13:59.693Z,4.62
2019-04-07T18:16:49.317Z,4.90
2019-04-07T18:19:38.862Z,5.05
2019-04-07T18:22:42.319Z,5.70
2019-04-07T18:25:34.064Z,4.72
2019-04-07T18:28:23.019Z,5.75
2019-04-07T18:31:05.344Z,5.33
2019-04-07T18:33:56.992Z,5.37
2019-04-07T18:37:01.986Z,5.37
2019-04-07T18:40:03.155Z,5.22
2019-04-07T18:42:55.751Z,5.12
2019-04-07T18:45:54.809Z,6.15
2019-04-07T18:48:59.168Z,5.05
2019-04-07T18:51:50.629Z,4.85
2019-04-07T18:54:37.697Z,5.78
2019-04-07T18:57:48.820Z,4.90
2019-04-07T19:00:38.109Z,4.70
2019-04-07T19:03:29.684Z,4.67
2019-04-07T19:06:14.824Z,5.37
2019-04-07T19:09:14.180Z,4.55
2019-04-07T19:12:22.720Z,5.28
2019-04-07T19:15:10.535Z,5.33
2019-04-07T19:17:58.926Z,4.62
2019-04-07T19:20:48.893Z,5.17
2019-04-07T19:23:59.125Z,5.20
2019-04-07T19:27:11.857Z,4.20
2019-04-07T19:30:07.082Z,6.15
2019-04-07T19:33:16.535Z,4.65
2019-04-07T19:36:06.220Z,3.83
2019-04-07T19:39:04.818Z,4.28
2019-04-07T19:42:08.788Z,4.20
2019-04-07T19:45:04.622Z,4.35
2019-04-07T19:47:58.183Z,4.15
2019-04-07T19:51:01.227Z,3.17
2019-04-07T19:54:04.423Z,3.98
2019-04-07T19:56:44.148Z,3.50
2019-04-07T19:59:43.073Z,4.35
2019-04-07T20:02:42.532Z,4.47
2019-04-07T20:05:27.953Z,4.03
2019-04-07T20:08:20.674Z,3.60
2019-04-07T20:11:16.189Z,4.35
2019-04-07T20:14:28.431Z,4.12
2019-04-07T20:17:24.447Z,4.47
2019-04-07T20:20:21.672Z,4.90
2019-04-07T20:23:22.915Z,4.30
2019-04-07T20:26:27.059Z,3.40
2019-04-07T20:29:27.989Z,4.28
2019-04-07T20:32:25.193Z,4.50
2019-04-07T20:35:24.791Z,4.30
2019-04-07T20:38:27.262Z,3.62
2019-04-07T20:41:19.585Z,4.10
2019-04-07T20:44:11.687Z,3.50
2019-04-07T20:47:14.241Z,3.47
2019-04-07T20:50:01.339Z,3.42
2019-04-07T20:53:21.772Z,3.22
2019-04-07T20:56:18.648Z,3.80
2019-04-07T20:59:18.850Z,3.65
2019-04-07T21:02:29.361Z,3.50
2019-04-07T21:05:38.989Z,3.30
2019-04-07T21:08:34.200Z,3.17
2019-04-07T21:11:29.071Z,3.83
2019-04-07T21:14:15.967Z,2.60
2019-04-07T21:17:10.804Z,3.15
2019-04-07T21:19:56.273Z,3.70
2019-04-07T21:22:54.006Z,2.98
2019-04-07T21:25:47.936Z,2.42
2019-04-07T21:28:37.812Z,3.20
2019-04-07T21:31:27.031Z,3.02
2019-04-07T21:34:29.572Z,2.62
2019-04-07T21:37:13.908Z,3.02
2019-04-07T21:40:05.385Z,2.58
2019-04-07T21:42:52.087Z,2.75
2019-04-07T21:45:56.522Z,2.45
2019-04-07T21:48:47.477Z,2.30
2019-04-07T21:51:39.872Z,2.30
2019-04-07T21:54:37.277Z,1.80
2019-04-07T21:57:29.179Z,1.95
2019-04-07T22:00:32.879Z,1.95
2019-04-07T22:03:29.013Z,2.08
2019-04-07T22:06:23.195Z,1.70
2019-04-07T22:09:03.100Z,1.92
2019-04-07T22:11:36.765Z,1.60
2019-04-07T22:14:10.426Z,1.60
2019-04-07T22:16:43.455Z,1.47
2019-04-07T22:19:16.674Z,1.20
2019-04-07T22:21:53.270Z,2.20
2019-04-07T22:24:23.144Z,1.70
2019-04-07T22:26:55.477Z,1.40
2019-04-07T22:29:27.403Z,1.32
2019-04-07T22:31:59.825Z,1.15
2019-04-07T22:34:32.655Z,1.57
2019-04-07T22:37:06.853Z,1.40
2019-04-07T22:39:39.716Z,1.67
2019-04-07T22:42:15.196Z,2.33
2019-04-07T22:44:47.375Z,2.05
2019-04-07T22:47:21.124Z,2.37
2019-04-07T22:49:55.302Z,2.65
2019-04-07T22:52:36.230Z,3.00
2019-04-07T22:55:09.783Z,4.15
2019-04-07T22:57:42.993Z,3.45
2019-04-07T23:00:19.749Z,3.33
2019-04-07T23:02:54.126Z,3.37
2019-04-07T23:05:26.430Z,2.98
2019-04-07T23:08:04.058Z,3.17
2019-04-07T23:10:41.004Z,3.52
2019-04-07T23:13:15.396Z,3.02
2019-04-07T23:15:50.276Z,3.40
2019-04-07T23:18:22.948Z,2.25
2019-04-07T23:20:55.634Z,2.85
2019-04-07T23:23:28.194Z,2.50
2019-04-07T23:26:00.652Z,2.85
2019-04-07T23:28:32.739Z,2.22
2019-04-07T23:31:05.708Z,2.85
2019-04-07T23:33:38.256Z,3.17
2019-04-07T23:36:11.546Z,2.77
2019-04-07T23:38:43.708Z,2.85
2019-04-07T23:41:15.930Z,2.47
2019-04-07T23:43:47.941Z,3.75
2019-04-07T23:46:24.735Z,3.12
2019-04-07T23:48:54.792Z,2.90
2019-04-07T23:51:28.723Z,3.67
2019-04-07T23:54:10.906Z,2.45
2019-04-07T23:56:44.801Z,2.55
2019-04-07T23:59:16.998Z,2.80
